Time;durP1;ratioP1;P1;durP2;ratioP2;P2;SDS_P1;SDS_P2;PMS_P1;PMS_P2;Temp;Humidity;BMP_temperature;BMP_pressure;BME280_temperature;BME280_humidity;BME280_pressure;Samples;Min_cycle;Max_cycle;Signal;HPM_P1;HPM_P2
2022/04/05 00:00:28;;;;;;;0.32;0.00;;;;;;;;;;2073957;28;20109;-59
2022/04/05 00:01:47;;;;;;;0.28;0.17;;;;;;;;;;2080251;28;20482;-58
2022/04/05 00:03:06;;;;;;;0.10;0.10;;;;;;;;;;2082697;28;20033;-58
2022/04/05 00:04:25;;;;;;;0.43;0.15;;;;;;;;;;2085527;28;20030;-59
2022/04/05 00:05:44;;;;;;;0.55;0.10;;;;;;;;;;2075451;28;20435;-58
2022/04/05 00:07:03;;;;;;;0.10;0.10;;;;;;;;;;2081337;28;20167;-59
2022/04/05 00:08:22;;;;;;;0.47;0.10;;;;;;;;;;2082391;28;20026;-59
2022/04/05 00:09:41;;;;;;;0.22;0.00;;;;;;;;;;2084562;28;20049;-59
2022/04/05 00:11:00;;;;;;;0.00;0.00;;;;;;;;;;2082217;28;20029;-59
2022/04/05 00:12:22;;;;;;;0.15;0.10;;;;;;;;;;2082949;28;20025;-59
2022/04/05 00:13:41;;;;;;;0.10;0.10;;;;;;;;;;2086282;28;20037;-59
2022/04/05 00:15:00;;;;;;;0.15;0.10;;;;;;;;;;2075665;28;20030;-59
2022/04/05 00:16:18;;;;;;;0.10;0.10;;;;;;;;;;2084016;28;20029;-59
2022/04/05 00:17:38;;;;;;;2.63;0.63;;;;;;;;;;2084234;28;20450;-59
2022/04/05 00:18:57;;;;;;;0.20;0.10;;;;;;;;;;2085928;28;20041;-57
2022/04/05 00:20:16;;;;;;;0.03;0.00;;;;;;;;;;2084234;28;20075;-58
2022/04/05 00:21:34;;;;;;;1.35;0.17;;;;;;;;;;2084925;28;20033;-59
2022/04/05 00:22:54;;;;;;;18.23;0.85;;;;;;;;;;2084606;28;20028;-59
2022/04/05 00:24:13;;;;;;;0.90;0.03;;;;;;;;;;2084723;28;20057;-57
2022/04/05 00:25:32;;;;;;;0.13;0.10;;;;;;;;;;2085369;28;20029;-59
2022/04/05 00:26:51;;;;;;;0.17;0.10;;;;;;;;;;2085572;28;20025;-60
2022/04/05 00:28:10;;;;;;;1.10;0.00;;;;;;;;;;2085632;28;20030;-59
2022/04/05 00:29:29;;;;;;;1.45;0.10;;;;;;;;;;2086084;28;20041;-59
2022/04/05 00:30:48;;;;;;;1.55;0.10;;;;;;;;;;2076028;28;20037;-60
2022/04/05 00:32:08;;;;;;;0.93;0.20;;;;;;;;;;2081308;28;20029;-59
2022/04/05 00:33:27;;;;;;;0.20;0.20;;;;;;;;;;2085403;28;20030;-59
2022/04/05 00:34:46;;;;;;;2.08;0.25;;;;;;;;;;2084109;28;20446;-59
2022/04/05 00:36:06;;;;;;;0.10;0.10;;;;;;;;;;2086356;28;20061;-59
2022/04/05 00:37:25;;;;;;;11.02;1.08;;;;;;;;;;2084328;28;20033;-59
2022/04/05 00:38:44;;;;;;;3.13;0.28;;;;;;;;;;2076586;28;20113;-59
2022/04/05 00:40:04;;;;;;;0.20;0.20;;;;;;;;;;2082386;28;20029;-58
2022/04/05 00:41:23;;;;;;;1.02;0.20;;;;;;;;;;2085229;28;20029;-59
2022/04/05 00:42:42;;;;;;;0.43;0.20;;;;;;;;;;2084569;28;20021;-59
2022/04/05 00:44:01;;;;;;;0.20;0.10;;;;;;;;;;2075474;28;20034;-59
2022/04/05 00:45:21;;;;;;;0.85;0.20;;;;;;;;;;2081986;28;20025;-59
2022/04/05 00:46:39;;;;;;;0.20;0.17;;;;;;;;;;2087180;28;20020;-59
2022/04/05 00:47:59;;;;;;;0.52;0.30;;;;;;;;;;2077949;28;20447;-59
2022/04/05 00:49:37;;;;;;;0.15;0.10;;;;;;;;;;2081638;28;20068;-58
2022/04/05 00:50:56;;;;;;;1.05;0.28;;;;;;;;;;2082689;28;20061;-59
2022/04/05 00:52:16;;;;;;;0.35;0.22;;;;;;;;;;2085716;28;20025;-59
2022/04/05 00:53:35;;;;;;;0.13;0.10;;;;;;;;;;2087227;28;20030;-59
2022/04/05 00:54:54;;;;;;;0.95;0.30;;;;;;;;;;2086406;28;20065;-58
2022/04/05 00:56:17;;;;;;;0.30;0.30;;;;;;;;;;2086503;28;20064;-59
2022/04/05 00:57:36;;;;;;;;;;;;;;;;;;2087056;28;20037;-59
2022/04/05 00:58:58;;;;;;;0.45;0.30;;;;;;;;;;2084523;28;19909;-59
2022/04/05 01:00:17;;;;;;;1.38;0.30;;;;;;;;;;2083419;28;20410;-59
2022/04/05 01:01:36;;;;;;;0.52;0.20;;;;;;;;;;2083981;28;20022;-58
2022/04/05 01:02:56;;;;;;;1.75;0.52;;;;;;;;;;2087354;28;20108;-59
2022/04/05 01:04:15;;;;;;;0.10;0.10;;;;;;;;;;2083168;28;20037;-59
2022/04/05 01:05:34;;;;;;;1.08;0.20;;;;;;;;;;2082461;28;20387;-58
2022/04/05 01:06:53;;;;;;;0.20;0.20;;;;;;;;;;2086070;28;20037;-59
2022/04/05 01:08:14;;;;;;;0.30;0.20;;;;;;;;;;2086147;28;20029;-59
2022/04/05 01:09:34;;;;;;;0.40;0.38;;;;;;;;;;2083960;28;20037;-58
2022/04/05 01:10:53;;;;;;;1.00;0.22;;;;;;;;;;2076871;28;20033;-57
2022/04/05 01:12:13;;;;;;;0.57;0.20;;;;;;;;;;2081439;28;20380;-59
2022/04/05 01:13:32;;;;;;;2.85;0.30;;;;;;;;;;2084888;28;20030;-59
2022/04/05 01:14:51;;;;;;;0.50;0.20;;;;;;;;;;2087548;28;20475;-59
2022/04/05 01:16:11;;;;;;;0.30;0.30;;;;;;;;;;2086048;28;20033;-58
2022/04/05 01:17:30;;;;;;;4.22;1.38;;;;;;;;;;2084179;28;20033;-59
2022/04/05 01:18:49;;;;;;;0.30;0.30;;;;;;;;;;2084147;28;20026;-59
2022/04/05 01:20:08;;;;;;;0.50;0.50;;;;;;;;;;2084099;28;20037;-59
2022/04/05 01:21:27;;;;;;;1.40;0.20;;;;;;;;;;2083879;28;20903;-59
2022/04/05 01:22:49;;;;;;;14.15;0.50;;;;;;;;;;2084961;28;20505;-59
2022/04/05 01:24:08;;;;;;;0.35;0.25;;;;;;;;;;2082137;28;20033;-58
2022/04/05 01:25:27;;;;;;;0.45;0.20;;;;;;;;;;2088144;28;20471;-60
2022/04/05 01:26:47;;;;;;;0.40;0.30;;;;;;;;;;2084176;28;20080;-59
2022/04/05 01:28:06;;;;;;;1.13;0.40;;;;;;;;;;2077325;28;20483;-59
2022/04/05 01:29:26;;;;;;;0.52;0.40;;;;;;;;;;2079361;28;20029;-59
2022/04/05 01:30:45;;;;;;;0.45;0.22;;;;;;;;;;2084133;28;20013;-58
2022/04/05 01:32:06;;;;;;;1.73;0.40;;;;;;;;;;2083311;28;20025;-58
2022/04/05 01:33:25;;;;;;;0.85;0.45;;;;;;;;;;2084381;28;20029;-58
2022/04/05 01:34:44;;;;;;;1.02;0.30;;;;;;;;;;2074428;28;20033;-57
2022/04/05 01:36:03;;;;;;;1.35;0.38;;;;;;;;;;2068305;28;20030;-60
2022/04/05 01:37:22;;;;;;;0.88;0.30;;;;;;;;;;2078773;28;20030;-57
2022/04/05 01:38:40;;;;;;;2.05;0.50;;;;;;;;;;2085128;28;20052;-57
2022/04/05 01:40:00;;;;;;;0.40;0.40;;;;;;;;;;2083773;28;20041;-58
2022/04/05 01:41:18;;;;;;;0.60;0.30;;;;;;;;;;2084301;28;20026;-60
2022/04/05 01:42:37;;;;;;;1.40;0.57;;;;;;;;;;2084223;28;20029;-60
2022/04/05 01:43:56;;;;;;;0.75;0.30;;;;;;;;;;2086469;28;20025;-57
2022/04/05 01:45:16;;;;;;;1.42;0.40;;;;;;;;;;2085429;28;20029;-58
2022/04/05 01:46:35;;;;;;;4.07;0.40;;;;;;;;;;2083587;28;20379;-57
2022/04/05 01:47:54;;;;;;;0.65;0.43;;;;;;;;;;2085024;28;20037;-57
2022/04/05 01:49:16;;;;;;;0.40;0.35;;;;;;;;;;2085199;28;20479;-59
2022/04/05 01:50:35;;;;;;;1.10;0.30;;;;;;;;;;2085960;28;20464;-57
2022/04/05 01:51:54;;;;;;;1.45;0.57;;;;;;;;;;2084469;28;20033;-57
2022/04/05 01:53:14;;;;;;;1.83;0.50;;;;;;;;;;2088329;28;20399;-60
2022/04/05 01:54:33;;;;;;;0.68;0.20;;;;;;;;;;2084907;28;20025;-59
2022/04/05 01:55:51;;;;;;;1.85;0.40;;;;;;;;;;2085522;28;20049;-59
2022/04/05 01:57:11;;;;;;;2.03;0.32;;;;;;;;;;2086071;28;20029;-60
2022/04/05 01:58:30;;;;;;;2.15;0.35;;;;;;;;;;2085192;28;20021;-59
2022/04/05 01:59:49;;;;;;;0.75;0.30;;;;;;;;;;2085598;28;20391;-59
2022/04/05 02:01:08;;;;;;;4.53;1.25;;;;;;;;;;2084894;28;20077;-58
2022/04/05 02:02:27;;;;;;;1.13;0.40;;;;;;;;;;2085364;28;20037;-58
2022/04/05 02:03:46;;;;;;;3.72;0.40;;;;;;;;;;2085296;28;20104;-58
2022/04/05 02:05:05;;;;;;;0.50;0.30;;;;;;;;;;2077239;28;20483;-58
2022/04/05 02:06:24;;;;;;;3.83;0.60;;;;;;;;;;2083479;28;20032;-59
2022/04/05 02:07:43;;;;;;;4.05;0.43;;;;;;;;;;2084330;28;20021;-58
2022/04/05 02:09:02;;;;;;;1.25;0.57;;;;;;;;;;2085327;28;20034;-58
2022/04/05 02:10:21;;;;;;;1.00;0.40;;;;;;;;;;2083449;28;20053;-58
2022/04/05 02:11:45;;;;;;;3.83;0.50;;;;;;;;;;2084331;28;20026;-58
2022/04/05 02:13:03;;;;;;;0.50;0.30;;;;;;;;;;2087030;28;20034;-59
2022/04/05 02:14:22;;;;;;;0.73;0.30;;;;;;;;;;2077917;28;20109;-60
2022/04/05 02:15:41;;;;;;;1.05;0.45;;;;;;;;;;2080640;28;20057;-58
2022/04/05 02:17:00;;;;;;;0.55;0.40;;;;;;;;;;2082364;28;20045;-59
2022/04/05 02:18:19;;;;;;;1.23;0.43;;;;;;;;;;2084903;28;20029;-58
2022/04/05 02:19:38;;;;;;;0.20;0.20;;;;;;;;;;2084215;28;20479;-58
2022/04/05 02:20:57;;;;;;;0.30;0.22;;;;;;;;;;2084685;28;20037;-58
2022/04/05 02:22:16;;;;;;;1.08;0.35;;;;;;;;;;2085885;28;20025;-59
2022/04/05 02:23:35;;;;;;;1.70;0.20;;;;;;;;;;2084791;28;20029;-59
2022/04/05 02:24:54;;;;;;;2.00;0.63;;;;;;;;;;2085530;28;20068;-59
2022/04/05 02:26:13;;;;;;;9.05;0.55;;;;;;;;;;2086935;28;20020;-59
2022/04/05 02:27:32;;;;;;;0.75;0.52;;;;;;;;;;2073953;28;20025;-59
2022/04/05 02:28:51;;;;;;;1.33;0.25;;;;;;;;;;2082000;28;20029;-59
2022/04/05 02:30:10;;;;;;;0.68;0.17;;;;;;;;;;2083731;28;20112;-59
2022/04/05 02:31:29;;;;;;;2.28;0.22;;;;;;;;;;2075190;28;20113;-59
2022/04/05 02:32:48;;;;;;;0.63;0.20;;;;;;;;;;2083473;28;20547;-59
2022/04/05 02:34:07;;;;;;;3.13;0.30;;;;;;;;;;2076012;28;20041;-59
2022/04/05 02:35:26;;;;;;;1.33;0.20;;;;;;;;;;2083130;28;20025;-59
2022/04/05 02:36:45;;;;;;;3.13;0.55;;;;;;;;;;2085372;28;20032;-59
2022/04/05 02:38:04;;;;;;;0.35;0.35;;;;;;;;;;2075754;28;20041;-59
2022/04/05 02:39:23;;;;;;;1.08;0.40;;;;;;;;;;2083321;28;20120;-58
2022/04/05 02:40:42;;;;;;;0.63;0.28;;;;;;;;;;2084621;28;20491;-59
2022/04/05 02:42:01;;;;;;;0.77;0.45;;;;;;;;;;2075978;28;20034;-59
2022/04/05 02:43:20;;;;;;;2.90;0.55;;;;;;;;;;2083346;28;20029;-59
2022/04/05 02:44:40;;;;;;;14.00;1.95;;;;;;;;;;2086582;28;20490;-59
2022/04/05 02:45:59;;;;;;;2.67;0.60;;;;;;;;;;2086914;28;20495;-58
2022/04/05 02:47:18;;;;;;;1.20;0.30;;;;;;;;;;2085382;28;20104;-59
2022/04/05 02:48:43;;;;;;;2.75;0.60;;;;;;;;;;2084984;28;20030;-57
2022/04/05 02:50:02;;;;;;;1.67;0.50;;;;;;;;;;2084202;28;20041;-59
2022/04/05 02:51:21;;;;;;;2.28;0.65;;;;;;;;;;2085549;28;20073;-59
2022/04/05 02:52:40;;;;;;;2.22;0.52;;;;;;;;;;2084577;28;20033;-59
2022/04/05 02:53:59;;;;;;;4.10;0.63;;;;;;;;;;2085534;28;20033;-59
2022/04/05 02:55:18;;;;;;;0.40;0.35;;;;;;;;;;2074691;28;20030;-57
2022/04/05 02:56:37;;;;;;;0.90;0.35;;;;;;;;;;2082587;28;20056;-59
2022/04/05 02:57:56;;;;;;;3.03;0.38;;;;;;;;;;2077037;28;20021;-59
2022/04/05 02:59:15;;;;;;;1.80;0.50;;;;;;;;;;2072669;28;20496;-59
2022/04/05 03:00:35;;;;;;;0.30;0.22;;;;;;;;;;2063536;28;20034;-58
2022/04/05 03:01:54;;;;;;;0.90;0.43;;;;;;;;;;2079512;28;20024;-58
2022/04/05 03:03:13;;;;;;;2.85;0.35;;;;;;;;;;2085837;28;20026;-59
2022/04/05 03:04:36;;;;;;;3.55;0.35;;;;;;;;;;2072806;28;20021;-59
2022/04/05 03:05:54;;;;;;;1.13;0.60;;;;;;;;;;2082228;28;20057;-59
2022/04/05 03:07:15;;;;;;;1.70;0.50;;;;;;;;;;2085098;28;20390;-58
2022/04/05 03:08:33;;;;;;;1.73;0.40;;;;;;;;;;2084341;28;20025;-59
2022/04/05 03:09:52;;;;;;;0.80;0.40;;;;;;;;;;2082668;28;20045;-58
2022/04/05 03:11:11;;;;;;;0.40;0.30;;;;;;;;;;2084707;28;20033;-59
2022/04/05 03:12:30;;;;;;;3.78;0.45;;;;;;;;;;2082943;28;20479;-59
2022/04/05 03:13:50;;;;;;;2.38;0.73;;;;;;;;;;2084156;28;20029;-59
2022/04/05 03:15:09;;;;;;;2.38;0.80;;;;;;;;;;2086361;28;20503;-59
2022/04/05 03:16:28;;;;;;;0.65;0.32;;;;;;;;;;2083624;28;20025;-59
2022/04/05 03:17:47;;;;;;;0.75;0.35;;;;;;;;;;2084119;28;20068;-59
2022/04/05 03:19:07;;;;;;;6.45;0.55;;;;;;;;;;2084905;28;20037;-60
2022/04/05 03:20:26;;;;;;;1.17;0.75;;;;;;;;;;2083239;28;20399;-59
2022/04/05 03:21:45;;;;;;;2.42;0.55;;;;;;;;;;2082007;28;20039;-59
2022/04/05 03:23:05;;;;;;;3.50;0.35;;;;;;;;;;2082072;28;20025;-59
2022/04/05 03:24:23;;;;;;;1.90;0.40;;;;;;;;;;2085521;28;20041;-59
2022/04/05 03:25:42;;;;;;;3.55;0.55;;;;;;;;;;2083576;28;20021;-58
2022/04/05 03:27:01;;;;;;;0.73;0.60;;;;;;;;;;2082586;28;20025;-59
2022/04/05 03:28:20;;;;;;;2.20;0.50;;;;;;;;;;2084426;28;20479;-60
2022/04/05 03:29:39;;;;;;;1.35;0.32;;;;;;;;;;2083459;28;20455;-58
2022/04/05 03:30:58;;;;;;;1.05;0.47;;;;;;;;;;2084254;28;20073;-59
2022/04/05 03:32:17;;;;;;;2.95;0.80;;;;;;;;;;2083638;28;20037;-59
2022/04/05 03:33:36;;;;;;;0.57;0.40;;;;;;;;;;2084497;28;20104;-59
2022/04/05 03:34:55;;;;;;;3.42;0.60;;;;;;;;;;2083353;28;20487;-59
2022/04/05 03:36:14;;;;;;;2.72;0.70;;;;;;;;;;2082086;28;20029;-59
2022/04/05 03:37:33;;;;;;;5.53;0.90;;;;;;;;;;2082569;28;20033;-59
2022/04/05 03:38:52;;;;;;;0.70;0.70;;;;;;;;;;2083423;28;20495;-59
2022/04/05 03:40:12;;;;;;;2.72;0.30;;;;;;;;;;2086492;28;20032;-59
2022/04/05 03:41:31;;;;;;;2.40;1.08;;;;;;;;;;2073224;28;20492;-59
2022/04/05 03:42:50;;;;;;;25.73;1.20;;;;;;;;;;2078732;28;20033;-59
2022/04/05 03:44:09;;;;;;;4.05;0.57;;;;;;;;;;2083999;28;20491;-59
2022/04/05 03:45:28;;;;;;;1.17;0.70;;;;;;;;;;2084172;28;20033;-59
2022/04/05 03:46:47;;;;;;;0.63;0.45;;;;;;;;;;2082532;28;20029;-59
2022/04/05 03:48:06;;;;;;;1.27;0.50;;;;;;;;;;2086775;28;20025;-59
2022/04/05 03:49:25;;;;;;;9.20;0.60;;;;;;;;;;2085703;28;20095;-59
2022/04/05 03:50:44;;;;;;;1.65;0.30;;;;;;;;;;2082287;28;20017;-59
2022/04/05 03:52:02;;;;;;;0.40;0.40;;;;;;;;;;2082004;28;20021;-58
2022/04/05 03:53:21;;;;;;;1.95;0.88;;;;;;;;;;2073069;28;20022;-59
2022/04/05 03:54:40;;;;;;;1.50;0.98;;;;;;;;;;2080688;28;20037;-59
2022/04/05 03:55:59;;;;;;;1.55;0.43;;;;;;;;;;2086032;28;20017;-59
2022/04/05 03:57:18;;;;;;;0.35;0.30;;;;;;;;;;2082635;28;20055;-60
2022/04/05 03:58:37;;;;;;;0.98;0.38;;;;;;;;;;2082449;28;20291;-59
2022/04/05 03:59:56;;;;;;;4.28;0.77;;;;;;;;;;2085997;28;20029;-58
2022/04/05 04:01:15;;;;;;;1.80;0.80;;;;;;;;;;2085844;28;20392;-59
2022/04/05 04:02:36;;;;;;;2.63;1.05;;;;;;;;;;2076492;28;20030;-58
2022/04/05 04:03:55;;;;;;;2.55;0.75;;;;;;;;;;2081611;28;20049;-59
2022/04/05 04:05:17;;;;;;;0.40;0.38;;;;;;;;;;2085583;28;20033;-59
2022/04/05 04:06:36;;;;;;;1.17;0.50;;;;;;;;;;2083118;28;20021;-59
2022/04/05 04:07:55;;;;;;;1.85;0.55;;;;;;;;;;2074603;28;20030;-59
2022/04/05 04:09:14;;;;;;;1.88;0.82;;;;;;;;;;2079624;28;20077;-59
2022/04/05 04:10:34;;;;;;;1.05;0.88;;;;;;;;;;2075431;28;20026;-59
2022/04/05 04:11:53;;;;;;;1.63;0.85;;;;;;;;;;2078640;28;20045;-59
2022/04/05 04:13:12;;;;;;;0.30;0.25;;;;;;;;;;2083553;28;20029;-60
2022/04/05 04:14:33;;;;;;;4.22;0.70;;;;;;;;;;2084172;28;20041;-58
2022/04/05 04:15:52;;;;;;;0.35;0.28;;;;;;;;;;2084310;28;20045;-58
2022/04/05 04:17:11;;;;;;;3.10;0.95;;;;;;;;;;2083019;28;20037;-59
2022/04/05 04:18:30;;;;;;;0.68;0.60;;;;;;;;;;2082516;28;20030;-58
2022/04/05 04:19:49;;;;;;;2.30;0.73;;;;;;;;;;2083350;28;20398;-59
2022/04/05 04:21:08;;;;;;;1.20;0.50;;;;;;;;;;2081492;28;20147;-60
2022/04/05 04:22:27;;;;;;;2.53;0.65;;;;;;;;;;2082986;28;20026;-60
2022/04/05 04:23:45;;;;;;;3.10;0.50;;;;;;;;;;2084728;28;20490;-60
2022/04/05 04:25:04;;;;;;;0.80;0.60;;;;;;;;;;2082055;28;20026;-60
2022/04/05 04:26:23;;;;;;;2.65;0.60;;;;;;;;;;2083494;28;20112;-63
2022/04/05 04:27:42;;;;;;;0.60;0.38;;;;;;;;;;2082503;28;20061;-63
2022/04/05 04:29:04;;;;;;;1.52;0.80;;;;;;;;;;2082544;28;20018;-63
2022/04/05 04:30:23;;;;;;;1.00;0.75;;;;;;;;;;2084119;28;20021;-62
2022/04/05 04:31:42;;;;;;;0.40;0.40;;;;;;;;;;2084103;28;20029;-63
2022/04/05 04:33:01;;;;;;;1.52;0.55;;;;;;;;;;2083284;28;20037;-63
2022/04/05 04:34:19;;;;;;;1.40;0.60;;;;;;;;;;2083360;28;20029;-63
2022/04/05 04:35:40;;;;;;;1.08;0.70;;;;;;;;;;2082311;28;20033;-63
2022/04/05 04:36:59;;;;;;;0.63;0.40;;;;;;;;;;2083641;28;20029;-63
2022/04/05 04:38:18;;;;;;;2.72;0.65;;;;;;;;;;2082273;28;20433;-62
2022/04/05 04:39:37;;;;;;;2.70;0.70;;;;;;;;;;2083161;28;20026;-63
2022/04/05 04:40:56;;;;;;;1.00;0.60;;;;;;;;;;2082143;28;20021;-62
2022/04/05 04:42:15;;;;;;;1.33;0.50;;;;;;;;;;2081163;28;20371;-63
2022/04/05 04:43:34;;;;;;;2.42;0.52;;;;;;;;;;2083246;28;20032;-61
2022/04/05 04:44:53;;;;;;;0.93;0.50;;;;;;;;;;2085048;28;20096;-62
2022/04/05 04:46:12;;;;;;;1.13;0.60;;;;;;;;;;2084297;28;20025;-64
2022/04/05 04:47:30;;;;;;;0.95;0.30;;;;;;;;;;2084900;28;20053;-64
2022/04/05 04:48:49;;;;;;;0.68;0.43;;;;;;;;;;2083225;28;20029;-63
2022/04/05 04:50:11;;;;;;;0.40;0.40;;;;;;;;;;2080588;28;20099;-63
2022/04/05 04:51:30;;;;;;;0.80;0.32;;;;;;;;;;2083627;28;20495;-63
2022/04/05 04:52:49;;;;;;;4.43;1.15;;;;;;;;;;2082726;28;20115;-62
2022/04/05 04:54:08;;;;;;;1.52;0.55;;;;;;;;;;2083214;28;20055;-62
2022/04/05 04:55:28;;;;;;;1.45;0.50;;;;;;;;;;2086066;28;20029;-63
2022/04/05 04:56:46;;;;;;;0.55;0.40;;;;;;;;;;2082206;28;20033;-63
2022/04/05 04:58:05;;;;;;;0.40;0.30;;;;;;;;;;2081707;28;20041;-63
2022/04/05 04:59:24;;;;;;;0.75;0.60;;;;;;;;;;2083148;28;20025;-62
2022/04/05 05:00:44;;;;;;;3.20;0.50;;;;;;;;;;2083258;28;20104;-63
2022/04/05 05:02:03;;;;;;;0.70;0.57;;;;;;;;;;2081462;28;20030;-62
2022/04/05 05:03:21;;;;;;;1.98;0.73;;;;;;;;;;2080699;28;20029;-62
2022/04/05 05:04:40;;;;;;;1.20;0.60;;;;;;;;;;2085040;28;20391;-61
2022/04/05 05:05:59;;;;;;;1.45;0.47;;;;;;;;;;2083084;28;20021;-63
2022/04/05 05:07:18;;;;;;;1.20;1.10;;;;;;;;;;2081170;28;20041;-63
2022/04/05 05:08:37;;;;;;;0.93;0.45;;;;;;;;;;2083618;28;20129;-62
2022/04/05 05:09:56;;;;;;;5.88;0.80;;;;;;;;;;2082877;28;20531;-62
2022/04/05 05:11:16;;;;;;;2.70;0.80;;;;;;;;;;2085177;28;20023;-62
2022/04/05 05:12:35;;;;;;;0.30;0.30;;;;;;;;;;2082338;28;20507;-62
2022/04/05 05:13:54;;;;;;;0.75;0.47;;;;;;;;;;2085924;28;20041;-62
2022/04/05 05:15:16;;;;;;;2.40;0.63;;;;;;;;;;2074958;28;20037;-62
2022/04/05 05:16:35;;;;;;;0.73;0.73;;;;;;;;;;2081279;28;20024;-62
2022/04/05 05:17:55;;;;;;;2.70;0.80;;;;;;;;;;2073747;28;20034;-62
2022/04/05 05:19:14;;;;;;;1.13;0.65;;;;;;;;;;2080404;28;20033;-63
2022/04/05 05:20:33;;;;;;;0.35;0.35;;;;;;;;;;2084148;28;20809;-64
2022/04/05 05:21:52;;;;;;;1.20;0.40;;;;;;;;;;2083560;28;20104;-63
2022/04/05 05:23:11;;;;;;;3.08;0.40;;;;;;;;;;2081413;28;20021;-64
2022/04/05 05:24:30;;;;;;;1.27;0.75;;;;;;;;;;2083621;28;20057;-62
2022/04/05 05:25:49;;;;;;;2.88;0.50;;;;;;;;;;2082380;28;20018;-62
2022/04/05 05:27:08;;;;;;;1.10;0.30;;;;;;;;;;2085856;28;20025;-62
2022/04/05 05:28:27;;;;;;;0.55;0.30;;;;;;;;;;2083305;28;20029;-61
2022/04/05 05:29:46;;;;;;;0.43;0.43;;;;;;;;;;2084856;28;20030;-64
2022/04/05 05:31:05;;;;;;;2.15;0.30;;;;;;;;;;2077848;28;20029;-62
2022/04/05 05:32:24;;;;;;;0.75;0.40;;;;;;;;;;2079900;28;20025;-63
2022/04/05 05:33:43;;;;;;;1.45;0.57;;;;;;;;;;2082167;28;20026;-64
2022/04/05 05:35:02;;;;;;;0.43;0.30;;;;;;;;;;2081535;28;20033;-62
2022/04/05 05:36:22;;;;;;;3.60;0.38;;;;;;;;;;2083165;28;20049;-62
2022/04/05 05:37:41;;;;;;;1.40;0.60;;;;;;;;;;2085671;28;20029;-62
2022/04/05 05:39:00;;;;;;;0.47;0.47;;;;;;;;;;2084116;28;20037;-61
2022/04/05 05:40:18;;;;;;;0.80;0.40;;;;;;;;;;2084531;28;20394;-64
2022/04/05 05:41:38;;;;;;;5.55;0.70;;;;;;;;;;2074736;28;20034;-63
2022/04/05 05:43:01;;;;;;;1.08;0.70;;;;;;;;;;2080307;28;20211;-62
2022/04/05 05:44:20;;;;;;;;;;;;;;;;;;2083001;28;20034;-64
2022/04/05 05:45:39;;;;;;;0.65;0.50;;;;;;;;;;2083575;28;20334;-62
2022/04/05 05:46:58;;;;;;;0.50;0.50;;;;;;;;;;2083993;28;20486;-63
2022/04/05 05:48:17;;;;;;;0.50;0.40;;;;;;;;;;2082521;28;20041;-63
2022/04/05 05:49:36;;;;;;;2.17;0.52;;;;;;;;;;2082752;28;20383;-63
2022/04/05 05:50:55;;;;;;;0.95;0.45;;;;;;;;;;2074019;28;20060;-61
2022/04/05 05:52:14;;;;;;;1.75;0.52;;;;;;;;;;2079773;28;20022;-65
2022/04/05 05:53:34;;;;;;;1.65;0.30;;;;;;;;;;2085034;28;20029;-62
2022/04/05 05:54:53;;;;;;;1.75;0.43;;;;;;;;;;2082267;28;20030;-64
2022/04/05 05:56:12;;;;;;;1.23;0.40;;;;;;;;;;2085669;28;20029;-63
2022/04/05 05:57:31;;;;;;;1.67;0.22;;;;;;;;;;2086084;28;20025;-66
2022/04/05 05:58:51;;;;;;;0.35;0.30;;;;;;;;;;2084221;28;20499;-62
2022/04/05 06:00:16;;;;;;;2.80;0.70;;;;;;;;;;2074667;28;20561;-62
2022/04/05 06:01:36;;;;;;;0.68;0.60;;;;;;;;;;2071949;28;20022;-62
2022/04/05 06:02:58;;;;;;;2.22;0.63;;;;;;;;;;2081858;28;20026;-62
2022/04/05 06:04:17;;;;;;;1.50;0.82;;;;;;;;;;2084971;28;20030;-64
2022/04/05 06:05:36;;;;;;;0.95;0.70;;;;;;;;;;2084714;28;20026;-63
2022/04/05 06:06:55;;;;;;;0.85;0.60;;;;;;;;;;2076435;28;20026;-62
2022/04/05 06:08:14;;;;;;;1.02;0.32;;;;;;;;;;2081172;28;20040;-63
2022/04/05 06:09:33;;;;;;;0.75;0.30;;;;;;;;;;2084387;28;20038;-63
2022/04/05 06:10:52;;;;;;;2.03;0.60;;;;;;;;;;2084867;28;20025;-62
2022/04/05 06:12:11;;;;;;;0.38;0.32;;;;;;;;;;2084660;28;20029;-62
2022/04/05 06:13:30;;;;;;;0.47;0.40;;;;;;;;;;2084895;28;20022;-61
2022/04/05 06:14:49;;;;;;;1.00;0.68;;;;;;;;;;2075154;28;20109;-63
2022/04/05 06:16:09;;;;;;;1.55;0.40;;;;;;;;;;2080251;28;20018;-62
2022/04/05 06:17:28;;;;;;;0.80;0.80;;;;;;;;;;2084120;28;20029;-63
2022/04/05 06:18:50;;;;;;;0.82;0.80;;;;;;;;;;2081521;28;20021;-62
2022/04/05 06:20:09;;;;;;;0.77;0.50;;;;;;;;;;2083398;28;20030;-62
2022/04/05 06:21:28;;;;;;;3.25;0.50;;;;;;;;;;2082997;28;20026;-65
2022/04/05 06:22:49;;;;;;;0.82;0.50;;;;;;;;;;2084729;28;20025;-64
2022/04/05 06:24:08;;;;;;;1.48;0.47;;;;;;;;;;2083071;28;20101;-66
2022/04/05 06:25:28;;;;;;;0.60;0.43;;;;;;;;;;2083884;28;20503;-63
2022/04/05 06:26:47;;;;;;;0.88;0.73;;;;;;;;;;2082779;28;20033;-64
2022/04/05 06:28:07;;;;;;;0.88;0.30;;;;;;;;;;2085182;28;20030;-65
2022/04/05 06:29:25;;;;;;;0.57;0.47;;;;;;;;;;2086048;28;20025;-64
2022/04/05 06:30:46;;;;;;;1.38;0.32;;;;;;;;;;2086228;28;20029;-64
2022/04/05 06:32:05;;;;;;;0.63;0.40;;;;;;;;;;2086705;28;20053;-64
2022/04/05 06:33:24;;;;;;;0.80;0.80;;;;;;;;;;2081422;28;20021;-63
2022/04/05 06:34:43;;;;;;;0.57;0.38;;;;;;;;;;2083175;28;20026;-62
2022/04/05 06:36:02;;;;;;;2.28;0.40;;;;;;;;;;2082909;28;20033;-64
2022/04/05 06:37:21;;;;;;;0.20;0.20;;;;;;;;;;2083821;28;20029;-63
2022/04/05 06:38:40;;;;;;;0.47;0.20;;;;;;;;;;2085094;28;20052;-64
2022/04/05 06:39:58;;;;;;;0.40;0.40;;;;;;;;;;2075750;28;20030;-64
2022/04/05 06:41:17;;;;;;;0.32;0.32;;;;;;;;;;2072561;28;20605;-63
2022/04/05 06:42:41;;;;;;;0.52;0.30;;;;;;;;;;2079571;28;20025;-64
2022/04/05 06:44:00;;;;;;;1.08;0.45;;;;;;;;;;2072720;28;20495;-63
2022/04/05 06:45:20;;;;;;;0.82;0.55;;;;;;;;;;2076209;28;20030;-63
2022/04/05 06:46:39;;;;;;;1.50;0.57;;;;;;;;;;2072683;28;20026;-64
2022/04/05 06:47:58;;;;;;;3.08;0.70;;;;;;;;;;2080852;28;20033;-63
2022/04/05 06:49:17;;;;;;;1.92;0.47;;;;;;;;;;2084329;28;20033;-65
2022/04/05 06:50:37;;;;;;;0.35;0.35;;;;;;;;;;2084855;28;20403;-64
2022/04/05 06:51:56;;;;;;;0.30;0.30;;;;;;;;;;2083193;28;20041;-63
2022/04/05 06:53:15;;;;;;;0.50;0.50;;;;;;;;;;2084350;28;20491;-63
2022/04/05 06:54:34;;;;;;;1.13;0.60;;;;;;;;;;2079752;28;20037;-64
2022/04/05 06:55:52;;;;;;;0.57;0.47;;;;;;;;;;2084379;28;20021;-64
2022/04/05 06:57:11;;;;;;;1.10;0.75;;;;;;;;;;2085336;28;20029;-64
2022/04/05 06:58:30;;;;;;;0.60;0.60;;;;;;;;;;2084941;28;20034;-64
2022/04/05 06:59:49;;;;;;;0.40;0.40;;;;;;;;;;2083360;28;20025;-63
2022/04/05 07:01:09;;;;;;;0.40;0.40;;;;;;;;;;2083413;28;20029;-63
2022/04/05 07:02:28;;;;;;;1.85;1.13;;;;;;;;;;2075828;28;20041;-63
2022/04/05 07:03:46;;;;;;;0.98;0.43;;;;;;;;;;2079001;28;20032;-63
2022/04/05 07:05:06;;;;;;;0.98;0.40;;;;;;;;;;2083081;28;20542;-63
2022/04/05 07:06:25;;;;;;;1.02;0.77;;;;;;;;;;2084910;28;20025;-62
2022/04/05 07:07:44;;;;;;;0.47;0.47;;;;;;;;;;2084910;28;20386;-63
2022/04/05 07:09:05;;;;;;;0.38;0.38;;;;;;;;;;2084599;28;20656;-63
2022/04/05 07:10:24;;;;;;;0.32;0.30;;;;;;;;;;2083415;28;20053;-63
2022/04/05 07:11:43;;;;;;;0.60;0.40;;;;;;;;;;2086064;28;20021;-63
2022/04/05 07:13:02;;;;;;;0.85;0.55;;;;;;;;;;2084043;28;20041;-63
2022/04/05 07:14:21;;;;;;;1.58;0.70;;;;;;;;;;2083903;28;20065;-63
2022/04/05 07:15:40;;;;;;;0.45;0.45;;;;;;;;;;2084331;28;20061;-63
2022/04/05 07:16:59;;;;;;;0.80;0.63;;;;;;;;;;2073153;28;20465;-63
2022/04/05 07:18:18;;;;;;;2.83;1.15;;;;;;;;;;2080341;28;20041;-63
2022/04/05 07:19:37;;;;;;;0.50;0.40;;;;;;;;;;2082416;28;20367;-62
2022/04/05 07:20:56;;;;;;;1.35;0.57;;;;;;;;;;2076564;28;20431;-63
2022/04/05 07:22:14;;;;;;;1.63;0.68;;;;;;;;;;2079352;28;20406;-63
2022/04/05 07:23:36;;;;;;;0.68;0.57;;;;;;;;;;2083167;28;20025;-63
2022/04/05 07:24:55;;;;;;;1.13;0.40;;;;;;;;;;2084250;28;20030;-64
2022/04/05 07:26:14;;;;;;;1.08;0.40;;;;;;;;;;2081676;28;20021;-63
2022/04/05 07:27:33;;;;;;;0.68;0.40;;;;;;;;;;2084866;28;20352;-63
2022/04/05 07:28:52;;;;;;;2.45;0.52;;;;;;;;;;2084645;28;20488;-62
2022/04/05 07:30:11;;;;;;;0.63;0.57;;;;;;;;;;2081939;28;20120;-63
2022/04/05 07:31:30;;;;;;;0.52;0.52;;;;;;;;;;2082444;28;20487;-63
2022/04/05 07:32:49;;;;;;;0.95;0.65;;;;;;;;;;2084066;28;20034;-63
2022/04/05 07:34:08;;;;;;;0.47;0.40;;;;;;;;;;2084967;28;20111;-64
2022/04/05 07:35:27;;;;;;;0.40;0.40;;;;;;;;;;2083643;28;20495;-64
2022/04/05 07:36:46;;;;;;;0.45;0.45;;;;;;;;;;2082465;28;20033;-61
2022/04/05 07:38:05;;;;;;;0.98;0.60;;;;;;;;;;2082436;28;20037;-63
2022/04/05 07:39:24;;;;;;;0.70;0.40;;;;;;;;;;2085486;28;20033;-62
2022/04/05 07:40:49;;;;;;;0.88;0.60;;;;;;;;;;2083850;28;20041;-61
2022/04/05 07:42:08;;;;;;;0.28;0.22;;;;;;;;;;2083723;28;20034;-63
2022/04/05 07:43:28;;;;;;;2.25;0.70;;;;;;;;;;2082558;28;20038;-62
2022/04/05 07:44:46;;;;;;;1.40;0.75;;;;;;;;;;2083245;28;20029;-62
2022/04/05 07:46:05;;;;;;;4.90;0.70;;;;;;;;;;2084356;28;20115;-62
2022/04/05 07:47:24;;;;;;;2.70;0.60;;;;;;;;;;2083712;28;20048;-63
2022/04/05 07:48:46;;;;;;;0.30;0.30;;;;;;;;;;2073582;28;20030;-63
2022/04/05 07:50:06;;;;;;;0.40;0.40;;;;;;;;;;2080854;28;20037;-63
2022/04/05 07:51:26;;;;;;;0.98;0.50;;;;;;;;;;2083175;28;20034;-63
2022/04/05 07:52:44;;;;;;;0.93;0.52;;;;;;;;;;2084682;28;20045;-62
2022/04/05 07:54:06;;;;;;;0.93;0.50;;;;;;;;;;2084533;28;20495;-62
2022/04/05 07:55:25;;;;;;;0.57;0.57;;;;;;;;;;2082542;28;20484;-62